sensor_id;sensor_type;location;lat;lon;timestamp;P1;durP1;ratioP1;P2;durP2;ratioP2
22060;SDS011;11194;48.092;-1.382;2023-03-18T00:00:09;4.18;;;2.80;;
22060;SDS011;11194;48.092;-1.382;2023-03-18T00:02:36;4.68;;;2.90;;
22060;SDS011;11194;48.092;-1.382;2023-03-18T00:05:03;4.60;;;3.20;;
22060;SDS011;11194;48.092;-1.382;2023-03-18T00:07:29;4.28;;;3.05;;
22060;SDS011;11194;48.092;-1.382;2023-03-18T00:09:56;5.95;;;3.80;;
22060;SDS011;11194;48.092;-1.382;2023-03-18T00:12:22;4.97;;;2.80;;
22060;SDS011;11194;48.092;-1.382;2023-03-18T00:14:49;4.35;;;3.47;;
22060;SDS011;11194;48.092;-1.382;2023-03-18T00:17:15;4.72;;;2.78;;
22060;SDS011;11194;48.092;-1.382;2023-03-18T00:19:41;5.82;;;3.60;;
22060;SDS011;11194;48.092;-1.382;2023-03-18T00:22:07;5.10;;;2.67;;
22060;SDS011;11194;48.092;-1.382;2023-03-18T00:24:34;5.30;;;2.70;;
22060;SDS011;11194;48.092;-1.382;2023-03-18T00:27:00;5.00;;;2.80;;
22060;SDS011;11194;48.092;-1.382;2023-03-18T00:29:26;5.38;;;3.00;;
22060;SDS011;11194;48.092;-1.382;2023-03-18T00:31:52;4.70;;;2.63;;
22060;SDS011;11194;48.092;-1.382;2023-03-18T00:34:18;8.70;;;2.92;;
22060;SDS011;11194;48.092;-1.382;2023-03-18T00:36:45;5.78;;;3.38;;
22060;SDS011;11194;48.092;-1.382;2023-03-18T00:39:14;5.13;;;2.80;;
22060;SDS011;11194;48.092;-1.382;2023-03-18T00:41:42;6.20;;;2.97;;
22060;SDS011;11194;48.092;-1.382;2023-03-18T00:44:08;4.55;;;3.10;;
22060;SDS011;11194;48.092;-1.382;2023-03-18T00:46:36;5.32;;;3.00;;
22060;SDS011;11194;48.092;-1.382;2023-03-18T00:49:03;5.43;;;3.05;;
22060;SDS011;11194;48.092;-1.382;2023-03-18T00:51:31;5.50;;;3.22;;
22060;SDS011;11194;48.092;-1.382;2023-03-18T00:53:57;5.13;;;3.13;;
22060;SDS011;11194;48.092;-1.382;2023-03-18T00:56:25;5.55;;;3.30;;
22060;SDS011;11194;48.092;-1.382;2023-03-18T00:58:52;3.90;;;3.05;;
22060;SDS011;11194;48.092;-1.382;2023-03-18T01:01:18;6.95;;;3.45;;
22060;SDS011;11194;48.092;-1.382;2023-03-18T01:03:45;6.20;;;3.45;;
22060;SDS011;11194;48.092;-1.382;2023-03-18T01:06:15;4.25;;;2.90;;
22060;SDS011;11194;48.092;-1.382;2023-03-18T01:08:42;5.38;;;2.85;;
22060;SDS011;11194;48.092;-1.382;2023-03-18T01:11:09;4.75;;;3.03;;
22060;SDS011;11194;48.092;-1.382;2023-03-18T01:13:35;5.03;;;2.53;;
22060;SDS011;11194;48.092;-1.382;2023-03-18T01:16:02;4.45;;;2.70;;
22060;SDS011;11194;48.092;-1.382;2023-03-18T01:18:28;5.10;;;2.80;;
22060;SDS011;11194;48.092;-1.382;2023-03-18T01:20:54;4.18;;;2.85;;
22060;SDS011;11194;48.092;-1.382;2023-03-18T01:23:21;4.20;;;2.42;;
22060;SDS011;11194;48.092;-1.382;2023-03-18T01:25:47;4.03;;;2.35;;
22060;SDS011;11194;48.092;-1.382;2023-03-18T01:28:13;4.55;;;2.40;;
22060;SDS011;11194;48.092;-1.382;2023-03-18T01:30:40;3.63;;;2.30;;
22060;SDS011;11194;48.092;-1.382;2023-03-18T01:33:06;5.28;;;2.67;;
22060;SDS011;11194;48.092;-1.382;2023-03-18T01:35:35;2.63;;;1.92;;
22060;SDS011;11194;48.092;-1.382;2023-03-18T01:38:03;3.95;;;2.35;;
22060;SDS011;11194;48.092;-1.382;2023-03-18T01:40:30;4.97;;;2.10;;
22060;SDS011;11194;48.092;-1.382;2023-03-18T01:43:19;4.95;;;1.65;;
22060;SDS011;11194;48.092;-1.382;2023-03-18T01:45:47;4.70;;;2.13;;
22060;SDS011;11194;48.092;-1.382;2023-03-18T01:48:15;3.42;;;2.15;;
22060;SDS011;11194;48.092;-1.382;2023-03-18T01:50:41;2.55;;;1.70;;
22060;SDS011;11194;48.092;-1.382;2023-03-18T01:53:10;6.75;;;2.45;;
22060;SDS011;11194;48.092;-1.382;2023-03-18T01:55:37;3.97;;;1.98;;
22060;SDS011;11194;48.092;-1.382;2023-03-18T01:58:07;7.15;;;2.38;;
22060;SDS011;11194;48.092;-1.382;2023-03-18T02:00:35;6.35;;;1.95;;
22060;SDS011;11194;48.092;-1.382;2023-03-18T02:03:03;6.25;;;2.33;;
22060;SDS011;11194;48.092;-1.382;2023-03-18T02:05:30;6.53;;;2.42;;
22060;SDS011;11194;48.092;-1.382;2023-03-18T02:07:56;6.00;;;2.10;;
22060;SDS011;11194;48.092;-1.382;2023-03-18T02:10:23;7.18;;;1.83;;
22060;SDS011;11194;48.092;-1.382;2023-03-18T02:12:51;5.32;;;2.15;;
22060;SDS011;11194;48.092;-1.382;2023-03-18T02:15:20;3.55;;;2.10;;
22060;SDS011;11194;48.092;-1.382;2023-03-18T02:17:54;7.05;;;2.50;;
22060;SDS011;11194;48.092;-1.382;2023-03-18T02:20:37;5.25;;;2.58;;
22060;SDS011;11194;48.092;-1.382;2023-03-18T02:25:54;4.70;;;2.20;;
22060;SDS011;11194;48.092;-1.382;2023-03-18T02:28:22;7.93;;;2.83;;
22060;SDS011;11194;48.092;-1.382;2023-03-18T05:01:18;3.15;;;1.10;;
22060;SDS011;11194;48.092;-1.382;2023-03-18T05:03:44;2.33;;;1.10;;
22060;SDS011;11194;48.092;-1.382;2023-03-18T05:06:30;5.60;;;1.20;;
22060;SDS011;11194;48.092;-1.382;2023-03-18T05:08:57;3.33;;;1.27;;
22060;SDS011;11194;48.092;-1.382;2023-03-18T05:11:23;2.75;;;1.60;;
22060;SDS011;11194;48.092;-1.382;2023-03-18T05:13:49;2.83;;;1.20;;
22060;SDS011;11194;48.092;-1.382;2023-03-18T05:16:16;2.03;;;1.10;;
22060;SDS011;11194;48.092;-1.382;2023-03-18T05:18:42;2.50;;;1.20;;
22060;SDS011;11194;48.092;-1.382;2023-03-18T05:21:08;5.85;;;1.70;;
22060;SDS011;11194;48.092;-1.382;2023-03-18T05:23:35;1.95;;;1.40;;
22060;SDS011;11194;48.092;-1.382;2023-03-18T05:26:01;4.10;;;1.65;;
22060;SDS011;11194;48.092;-1.382;2023-03-18T05:28:27;5.03;;;1.48;;
22060;SDS011;11194;48.092;-1.382;2023-03-18T05:30:53;2.63;;;1.58;;
22060;SDS011;11194;48.092;-1.382;2023-03-18T05:33:19;2.72;;;1.50;;
22060;SDS011;11194;48.092;-1.382;2023-03-18T05:35:46;2.03;;;1.30;;
22060;SDS011;11194;48.092;-1.382;2023-03-18T05:38:12;4.40;;;1.40;;
22060;SDS011;11194;48.092;-1.382;2023-03-18T05:40:38;2.85;;;1.35;;
22060;SDS011;11194;48.092;-1.382;2023-03-18T05:43:05;2.60;;;1.48;;
22060;SDS011;11194;48.092;-1.382;2023-03-18T05:45:31;3.63;;;1.42;;
22060;SDS011;11194;48.092;-1.382;2023-03-18T05:47:57;3.53;;;1.35;;
22060;SDS011;11194;48.092;-1.382;2023-03-18T05:50:30;3.35;;;1.42;;
22060;SDS011;11194;48.092;-1.382;2023-03-18T05:52:56;3.95;;;1.13;;
22060;SDS011;11194;48.092;-1.382;2023-03-18T05:55:22;2.95;;;1.40;;
22060;SDS011;11194;48.092;-1.382;2023-03-18T05:57:49;1.60;;;1.00;;
22060;SDS011;11194;48.092;-1.382;2023-03-18T06:00:15;2.22;;;1.08;;
22060;SDS011;11194;48.092;-1.382;2023-03-18T06:02:42;4.57;;;0.70;;
22060;SDS011;11194;48.092;-1.382;2023-03-18T06:05:09;2.90;;;1.05;;
22060;SDS011;11194;48.092;-1.382;2023-03-18T06:07:36;1.30;;;1.00;;
22060;SDS011;11194;48.092;-1.382;2023-03-18T06:10:02;1.60;;;1.10;;
22060;SDS011;11194;48.092;-1.382;2023-03-18T06:12:31;2.13;;;0.85;;
22060;SDS011;11194;48.092;-1.382;2023-03-18T06:14:58;4.38;;;1.00;;
22060;SDS011;11194;48.092;-1.382;2023-03-18T06:17:24;2.00;;;1.02;;
22060;SDS011;11194;48.092;-1.382;2023-03-18T06:19:50;2.75;;;1.20;;
22060;SDS011;11194;48.092;-1.382;2023-03-18T06:22:16;3.08;;;1.42;;
22060;SDS011;11194;48.092;-1.382;2023-03-18T06:24:42;3.03;;;1.10;;
22060;SDS011;11194;48.092;-1.382;2023-03-18T06:27:08;2.92;;;1.30;;
22060;SDS011;11194;48.092;-1.382;2023-03-18T06:29:35;3.72;;;1.23;;
22060;SDS011;11194;48.092;-1.382;2023-03-18T06:32:02;4.20;;;1.83;;
22060;SDS011;11194;48.092;-1.382;2023-03-18T06:34:28;1.92;;;1.20;;
22060;SDS011;11194;48.092;-1.382;2023-03-18T06:36:54;4.38;;;1.33;;
22060;SDS011;11194;48.092;-1.382;2023-03-18T06:39:21;3.53;;;1.45;;
22060;SDS011;11194;48.092;-1.382;2023-03-18T06:41:47;3.78;;;1.77;;
22060;SDS011;11194;48.092;-1.382;2023-03-18T06:44:13;4.75;;;1.65;;
22060;SDS011;11194;48.092;-1.382;2023-03-18T06:46:39;2.08;;;1.77;;
22060;SDS011;11194;48.092;-1.382;2023-03-18T06:49:05;2.17;;;1.55;;
22060;SDS011;11194;48.092;-1.382;2023-03-18T06:51:31;4.30;;;1.75;;
22060;SDS011;11194;48.092;-1.382;2023-03-18T06:53:58;2.40;;;1.35;;
22060;SDS011;11194;48.092;-1.382;2023-03-18T06:56:24;2.72;;;1.23;;
22060;SDS011;11194;48.092;-1.382;2023-03-18T06:58:50;5.15;;;1.60;;
22060;SDS011;11194;48.092;-1.382;2023-03-18T07:01:17;3.53;;;1.27;;
22060;SDS011;11194;48.092;-1.382;2023-03-18T07:03:43;3.85;;;1.52;;
22060;SDS011;11194;48.092;-1.382;2023-03-18T07:06:09;2.92;;;1.20;;
22060;SDS011;11194;48.092;-1.382;2023-03-18T07:08:36;1.70;;;0.90;;
22060;SDS011;11194;48.092;-1.382;2023-03-18T07:11:02;1.23;;;1.02;;
22060;SDS011;11194;48.092;-1.382;2023-03-18T07:13:29;3.08;;;1.42;;
22060;SDS011;11194;48.092;-1.382;2023-03-18T07:15:55;3.10;;;2.20;;
22060;SDS011;11194;48.092;-1.382;2023-03-18T07:18:22;5.68;;;3.40;;
22060;SDS011;11194;48.092;-1.382;2023-03-18T07:20:48;6.70;;;5.15;;
22060;SDS011;11194;48.092;-1.382;2023-03-18T07:23:14;11.23;;;7.25;;
22060;SDS011;11194;48.092;-1.382;2023-03-18T07:25:40;8.32;;;5.05;;
22060;SDS011;11194;48.092;-1.382;2023-03-18T07:28:08;3.42;;;1.77;;
22060;SDS011;11194;48.092;-1.382;2023-03-18T07:30:35;3.53;;;1.88;;
22060;SDS011;11194;48.092;-1.382;2023-03-18T07:33:02;5.85;;;2.00;;
22060;SDS011;11194;48.092;-1.382;2023-03-18T07:35:28;4.90;;;1.92;;
22060;SDS011;11194;48.092;-1.382;2023-03-18T07:37:54;4.72;;;2.25;;
22060;SDS011;11194;48.092;-1.382;2023-03-18T07:40:24;6.38;;;1.80;;
22060;SDS011;11194;48.092;-1.382;2023-03-18T07:42:50;7.25;;;2.17;;
22060;SDS011;11194;48.092;-1.382;2023-03-18T07:45:16;3.22;;;1.88;;
22060;SDS011;11194;48.092;-1.382;2023-03-18T07:47:42;2.80;;;1.83;;
22060;SDS011;11194;48.092;-1.382;2023-03-18T07:50:09;9.65;;;2.10;;
22060;SDS011;11194;48.092;-1.382;2023-03-18T07:52:36;7.78;;;2.25;;
22060;SDS011;11194;48.092;-1.382;2023-03-18T07:55:02;7.63;;;2.00;;
22060;SDS011;11194;48.092;-1.382;2023-03-18T07:57:29;7.68;;;2.60;;
22060;SDS011;11194;48.092;-1.382;2023-03-18T07:59:55;4.95;;;1.73;;
22060;SDS011;11194;48.092;-1.382;2023-03-18T08:02:21;6.75;;;2.05;;
22060;SDS011;11194;48.092;-1.382;2023-03-18T08:04:47;6.72;;;2.17;;
22060;SDS011;11194;48.092;-1.382;2023-03-18T08:07:13;7.00;;;3.08;;
22060;SDS011;11194;48.092;-1.382;2023-03-18T08:09:39;9.43;;;3.80;;
22060;SDS011;11194;48.092;-1.382;2023-03-18T08:12:05;7.00;;;2.63;;
22060;SDS011;11194;48.092;-1.382;2023-03-18T08:14:32;5.20;;;2.67;;
22060;SDS011;11194;48.092;-1.382;2023-03-18T08:16:58;5.68;;;4.78;;
22060;SDS011;11194;48.092;-1.382;2023-03-18T08:19:24;6.32;;;4.10;;
22060;SDS011;11194;48.092;-1.382;2023-03-18T08:21:51;5.97;;;3.58;;
22060;SDS011;11194;48.092;-1.382;2023-03-18T08:24:18;8.77;;;4.10;;
22060;SDS011;11194;48.092;-1.382;2023-03-18T08:26:44;7.75;;;3.10;;
22060;SDS011;11194;48.092;-1.382;2023-03-18T08:29:11;8.63;;;5.30;;
22060;SDS011;11194;48.092;-1.382;2023-03-18T08:31:37;7.80;;;3.90;;
22060;SDS011;11194;48.092;-1.382;2023-03-18T08:34:03;7.78;;;5.18;;
22060;SDS011;11194;48.092;-1.382;2023-03-18T08:36:29;10.40;;;5.18;;
22060;SDS011;11194;48.092;-1.382;2023-03-18T08:38:56;14.65;;;8.35;;
22060;SDS011;11194;48.092;-1.382;2023-03-18T08:41:22;12.77;;;7.45;;
22060;SDS011;11194;48.092;-1.382;2023-03-18T08:43:50;8.93;;;4.53;;
22060;SDS011;11194;48.092;-1.382;2023-03-18T08:46:17;6.00;;;3.47;;
22060;SDS011;11194;48.092;-1.382;2023-03-18T08:48:43;15.07;;;7.57;;
22060;SDS011;11194;48.092;-1.382;2023-03-18T08:51:09;4.18;;;2.90;;
22060;SDS011;11194;48.092;-1.382;2023-03-18T08:53:38;7.20;;;2.83;;
22060;SDS011;11194;48.092;-1.382;2023-03-18T08:56:04;7.75;;;2.90;;
22060;SDS011;11194;48.092;-1.382;2023-03-18T08:58:31;4.60;;;1.92;;
22060;SDS011;11194;48.092;-1.382;2023-03-18T09:00:58;5.00;;;2.53;;
22060;SDS011;11194;48.092;-1.382;2023-03-18T09:03:26;2.92;;;1.98;;
22060;SDS011;11194;48.092;-1.382;2023-03-18T09:05:52;2.67;;;2.10;;
22060;SDS011;11194;48.092;-1.382;2023-03-18T09:08:19;9.32;;;2.05;;
22060;SDS011;11194;48.092;-1.382;2023-03-18T09:10:46;5.53;;;2.30;;
22060;SDS011;11194;48.092;-1.382;2023-03-18T09:13:13;6.57;;;2.67;;
22060;SDS011;11194;48.092;-1.382;2023-03-18T09:15:39;2.67;;;1.92;;
22060;SDS011;11194;48.092;-1.382;2023-03-18T09:18:06;4.22;;;2.60;;
22060;SDS011;11194;48.092;-1.382;2023-03-18T09:20:32;4.65;;;3.00;;
22060;SDS011;11194;48.092;-1.382;2023-03-18T09:22:58;4.78;;;3.45;;
22060;SDS011;11194;48.092;-1.382;2023-03-18T09:25:24;5.30;;;4.30;;
22060;SDS011;11194;48.092;-1.382;2023-03-18T09:27:51;9.52;;;4.53;;
22060;SDS011;11194;48.092;-1.382;2023-03-18T09:30:17;7.30;;;4.75;;
22060;SDS011;11194;48.092;-1.382;2023-03-18T09:32:43;9.30;;;5.68;;
22060;SDS011;11194;48.092;-1.382;2023-03-18T09:35:10;8.63;;;6.30;;
22060;SDS011;11194;48.092;-1.382;2023-03-18T09:37:36;11.40;;;6.50;;
22060;SDS011;11194;48.092;-1.382;2023-03-18T09:40:03;5.00;;;3.58;;
22060;SDS011;11194;48.092;-1.382;2023-03-18T09:45:13;6.40;;;3.33;;
22060;SDS011;11194;48.092;-1.382;2023-03-18T09:48:02;5.05;;;4.45;;
22060;SDS011;11194;48.092;-1.382;2023-03-18T09:50:37;5.72;;;3.90;;
22060;SDS011;11194;48.092;-1.382;2023-03-18T09:56:03;5.32;;;3.50;;
22060;SDS011;11194;48.092;-1.382;2023-03-18T09:58:35;6.35;;;3.25;;
22060;SDS011;11194;48.092;-1.382;2023-03-18T10:01:04;5.13;;;4.40;;
22060;SDS011;11194;48.092;-1.382;2023-03-18T10:03:38;5.57;;;3.50;;
22060;SDS011;11194;48.092;-1.382;2023-03-18T10:06:07;7.43;;;5.20;;
22060;SDS011;11194;48.092;-1.382;2023-03-18T10:08:42;4.85;;;4.40;;
22060;SDS011;11194;48.092;-1.382;2023-03-18T10:11:53;4.53;;;3.83;;
22060;SDS011;11194;48.092;-1.382;2023-03-18T10:14:07;4.68;;;2.08;;
22060;SDS011;11194;48.092;-1.382;2023-03-18T10:16:47;3.10;;;2.58;;
22060;SDS011;11194;48.092;-1.382;2023-03-18T10:19:15;3.67;;;1.85;;
22060;SDS011;11194;48.092;-1.382;2023-03-18T10:26:37;4.95;;;3.67;;
22060;SDS011;11194;48.092;-1.382;2023-03-18T10:34:51;5.20;;;3.72;;
22060;SDS011;11194;48.092;-1.382;2023-03-18T10:40:12;4.68;;;3.67;;
22060;SDS011;11194;48.092;-1.382;2023-03-18T10:42:39;5.78;;;4.63;;
22060;SDS011;11194;48.092;-1.382;2023-03-18T10:45:07;4.68;;;2.45;;
22060;SDS011;11194;48.092;-1.382;2023-03-18T10:47:40;3.03;;;2.28;;
22060;SDS011;11194;48.092;-1.382;2023-03-18T10:50:15;3.95;;;2.85;;
22060;SDS011;11194;48.092;-1.382;2023-03-18T10:52:47;5.90;;;3.53;;
22060;SDS011;11194;48.092;-1.382;2023-03-18T10:55:16;3.92;;;2.83;;
22060;SDS011;11194;48.092;-1.382;2023-03-18T10:57:43;4.97;;;2.78;;
22060;SDS011;11194;48.092;-1.382;2023-03-18T11:00:31;5.07;;;3.30;;
22060;SDS011;11194;48.092;-1.382;2023-03-18T11:02:59;5.57;;;3.65;;
22060;SDS011;11194;48.092;-1.382;2023-03-18T11:05:27;5.43;;;2.80;;
22060;SDS011;11194;48.092;-1.382;2023-03-18T11:08:36;6.05;;;2.72;;
22060;SDS011;11194;48.092;-1.382;2023-03-18T11:10:44;5.10;;;2.60;;
22060;SDS011;11194;48.092;-1.382;2023-03-18T11:13:17;4.85;;;3.30;;
22060;SDS011;11194;48.092;-1.382;2023-03-18T11:15:48;6.13;;;5.38;;
22060;SDS011;11194;48.092;-1.382;2023-03-18T11:18:15;8.77;;;6.22;;
22060;SDS011;11194;48.092;-1.382;2023-03-18T11:20:43;4.45;;;4.07;;
22060;SDS011;11194;48.092;-1.382;2023-03-18T11:23:29;7.00;;;2.65;;
22060;SDS011;11194;48.092;-1.382;2023-03-18T11:26:45;6.70;;;2.95;;
22060;SDS011;11194;48.092;-1.382;2023-03-18T11:29:14;7.70;;;4.30;;
22060;SDS011;11194;48.092;-1.382;2023-03-18T11:34:18;6.40;;;2.38;;
22060;SDS011;11194;48.092;-1.382;2023-03-18T11:37:05;8.60;;;2.92;;
22060;SDS011;11194;48.092;-1.382;2023-03-18T11:39:36;6.47;;;2.22;;
22060;SDS011;11194;48.092;-1.382;2023-03-18T11:42:17;7.43;;;2.10;;
22060;SDS011;11194;48.092;-1.382;2023-03-18T11:44:45;7.47;;;2.47;;
22060;SDS011;11194;48.092;-1.382;2023-03-18T11:47:16;3.97;;;1.77;;
22060;SDS011;11194;48.092;-1.382;2023-03-18T11:49:44;8.82;;;3.35;;
22060;SDS011;11194;48.092;-1.382;2023-03-18T12:05:56;8.18;;;1.98;;
22060;SDS011;11194;48.092;-1.382;2023-03-18T12:32:03;18.13;;;12.80;;
22060;SDS011;11194;48.092;-1.382;2023-03-18T12:34:50;14.90;;;9.00;;
22060;SDS011;11194;48.092;-1.382;2023-03-18T12:37:30;13.77;;;12.35;;
22060;SDS011;11194;48.092;-1.382;2023-03-18T12:42:31;17.50;;;13.60;;
22060;SDS011;11194;48.092;-1.382;2023-03-18T12:45:01;18.58;;;14.85;;
22060;SDS011;11194;48.092;-1.382;2023-03-18T12:50:14;12.35;;;11.02;;
22060;SDS011;11194;48.092;-1.382;2023-03-18T12:52:46;7.70;;;6.07;;
22060;SDS011;11194;48.092;-1.382;2023-03-18T12:57:44;5.40;;;3.20;;
22060;SDS011;11194;48.092;-1.382;2023-03-18T13:02:43;5.95;;;5.38;;
22060;SDS011;11194;48.092;-1.382;2023-03-18T13:05:21;8.98;;;6.05;;
22060;SDS011;11194;48.092;-1.382;2023-03-18T13:10:44;5.82;;;4.78;;
22060;SDS011;11194;48.092;-1.382;2023-03-18T13:13:12;5.80;;;4.53;;
22060;SDS011;11194;48.092;-1.382;2023-03-18T13:15:41;6.93;;;6.22;;
22060;SDS011;11194;48.092;-1.382;2023-03-18T13:18:18;3.78;;;1.90;;
22060;SDS011;11194;48.092;-1.382;2023-03-18T13:20:44;3.13;;;1.70;;
22060;SDS011;11194;48.092;-1.382;2023-03-18T13:28:37;2.58;;;1.92;;
22060;SDS011;11194;48.092;-1.382;2023-03-18T13:44:30;2.90;;;2.30;;
22060;SDS011;11194;48.092;-1.382;2023-03-18T13:47:02;3.83;;;2.70;;
22060;SDS011;11194;48.092;-1.382;2023-03-18T13:49:31;15.80;;;8.45;;
22060;SDS011;11194;48.092;-1.382;2023-03-18T13:54:25;18.88;;;13.95;;
22060;SDS011;11194;48.092;-1.382;2023-03-18T13:56:55;41.53;;;26.17;;
22060;SDS011;11194;48.092;-1.382;2023-03-18T14:04:52;219.55;;;100.20;;
22060;SDS011;11194;48.092;-1.382;2023-03-18T14:07:21;289.40;;;142.93;;
22060;SDS011;11194;48.092;-1.382;2023-03-18T14:15:19;30.23;;;27.15;;
22060;SDS011;11194;48.092;-1.382;2023-03-18T14:17:52;23.05;;;18.33;;
22060;SDS011;11194;48.092;-1.382;2023-03-18T14:20:25;9.07;;;8.13;;
22060;SDS011;11194;48.092;-1.382;2023-03-18T14:22:52;8.20;;;7.40;;
22060;SDS011;11194;48.092;-1.382;2023-03-18T14:25:21;12.40;;;10.25;;
22060;SDS011;11194;48.092;-1.382;2023-03-18T14:33:04;10.18;;;9.23;;
22060;SDS011;11194;48.092;-1.382;2023-03-18T14:40:40;7.45;;;6.85;;
22060;SDS011;11194;48.092;-1.382;2023-03-18T14:43:13;12.00;;;7.95;;
22060;SDS011;11194;48.092;-1.382;2023-03-18T14:45:44;6.80;;;5.57;;
22060;SDS011;11194;48.092;-1.382;2023-03-18T14:51:13;2.78;;;2.50;;
22060;SDS011;11194;48.092;-1.382;2023-03-18T14:56:40;1.80;;;1.70;;
22060;SDS011;11194;48.092;-1.382;2023-03-18T14:59:15;1.52;;;1.38;;
22060;SDS011;11194;48.092;-1.382;2023-03-18T15:01:45;2.28;;;2.08;;
22060;SDS011;11194;48.092;-1.382;2023-03-18T15:04:18;2.78;;;2.33;;
22060;SDS011;11194;48.092;-1.382;2023-03-18T15:06:47;2.33;;;1.95;;
22060;SDS011;11194;48.092;-1.382;2023-03-18T15:09:17;3.35;;;3.13;;
22060;SDS011;11194;48.092;-1.382;2023-03-18T15:11:46;3.10;;;2.90;;
22060;SDS011;11194;48.092;-1.382;2023-03-18T15:14:22;3.28;;;2.95;;
22060;SDS011;11194;48.092;-1.382;2023-03-18T15:17:00;2.30;;;2.15;;
22060;SDS011;11194;48.092;-1.382;2023-03-18T15:19:26;1.52;;;1.42;;
22060;SDS011;11194;48.092;-1.382;2023-03-18T15:21:53;2.33;;;1.35;;
22060;SDS011;11194;48.092;-1.382;2023-03-18T15:24:21;2.55;;;1.00;;
22060;SDS011;11194;48.092;-1.382;2023-03-18T15:27:09;1.83;;;1.30;;
22060;SDS011;11194;48.092;-1.382;2023-03-18T15:29:51;2.03;;;1.85;;
22060;SDS011;11194;48.092;-1.382;2023-03-18T15:32:19;17.45;;;14.90;;
22060;SDS011;11194;48.092;-1.382;2023-03-18T15:34:55;5.35;;;3.30;;
22060;SDS011;11194;48.092;-1.382;2023-03-18T15:37:31;8.10;;;7.10;;
22060;SDS011;11194;48.092;-1.382;2023-03-18T15:42:44;5.38;;;3.38;;
22060;SDS011;11194;48.092;-1.382;2023-03-18T15:45:15;6.93;;;3.72;;
22060;SDS011;11194;48.092;-1.382;2023-03-18T15:47:42;2.70;;;1.50;;
22060;SDS011;11194;48.092;-1.382;2023-03-18T15:52:44;4.78;;;3.38;;
22060;SDS011;11194;48.092;-1.382;2023-03-18T15:57:57;5.43;;;3.75;;
22060;SDS011;11194;48.092;-1.382;2023-03-18T16:00:23;8.23;;;6.35;;
22060;SDS011;11194;48.092;-1.382;2023-03-18T16:02:50;2.40;;;1.75;;
22060;SDS011;11194;48.092;-1.382;2023-03-18T16:07:42;2.95;;;1.63;;
22060;SDS011;11194;48.092;-1.382;2023-03-18T16:10:09;1.88;;;1.20;;
22060;SDS011;11194;48.092;-1.382;2023-03-18T16:12:35;4.22;;;1.90;;
22060;SDS011;11194;48.092;-1.382;2023-03-18T16:15:09;4.93;;;3.63;;
22060;SDS011;11194;48.092;-1.382;2023-03-18T16:17:38;2.38;;;1.52;;
22060;SDS011;11194;48.092;-1.382;2023-03-18T16:20:16;5.13;;;2.72;;
22060;SDS011;11194;48.092;-1.382;2023-03-18T16:22:43;4.07;;;1.88;;
22060;SDS011;11194;48.092;-1.382;2023-03-18T16:25:10;1.45;;;1.35;;
22060;SDS011;11194;48.092;-1.382;2023-03-18T16:27:37;2.60;;;1.55;;
22060;SDS011;11194;48.092;-1.382;2023-03-18T16:30:04;2.30;;;1.77;;
22060;SDS011;11194;48.092;-1.382;2023-03-18T16:32:31;3.55;;;2.45;;
22060;SDS011;11194;48.092;-1.382;2023-03-18T16:34:57;1.65;;;1.50;;
22060;SDS011;11194;48.092;-1.382;2023-03-18T16:37:25;1.83;;;1.67;;
22060;SDS011;11194;48.092;-1.382;2023-03-18T16:39:52;4.05;;;3.00;;
22060;SDS011;11194;48.092;-1.382;2023-03-18T16:42:21;2.20;;;1.15;;
22060;SDS011;11194;48.092;-1.382;2023-03-18T16:44:47;1.58;;;1.33;;
22060;SDS011;11194;48.092;-1.382;2023-03-18T16:47:18;4.47;;;1.83;;
22060;SDS011;11194;48.092;-1.382;2023-03-18T16:49:45;1.52;;;1.38;;
22060;SDS011;11194;48.092;-1.382;2023-03-18T16:52:12;2.30;;;1.95;;
22060;SDS011;11194;48.092;-1.382;2023-03-18T16:54:38;4.43;;;1.50;;
22060;SDS011;11194;48.092;-1.382;2023-03-18T16:57:05;2.00;;;1.40;;
22060;SDS011;11194;48.092;-1.382;2023-03-18T16:59:32;3.30;;;1.80;;
22060;SDS011;11194;48.092;-1.382;2023-03-18T17:01:59;3.08;;;2.25;;
22060;SDS011;11194;48.092;-1.382;2023-03-18T17:04:26;3.90;;;3.50;;
22060;SDS011;11194;48.092;-1.382;2023-03-18T17:06:54;10.20;;;9.20;;
22060;SDS011;11194;48.092;-1.382;2023-03-18T17:09:23;4.72;;;4.28;;
22060;SDS011;11194;48.092;-1.382;2023-03-18T17:11:50;6.28;;;5.78;;
22060;SDS011;11194;48.092;-1.382;2023-03-18T17:16:56;4.60;;;3.75;;
22060;SDS011;11194;48.092;-1.382;2023-03-18T17:19:24;5.63;;;4.30;;
22060;SDS011;11194;48.092;-1.382;2023-03-18T17:21:51;7.38;;;5.88;;
22060;SDS011;11194;48.092;-1.382;2023-03-18T17:24:23;18.88;;;12.65;;
22060;SDS011;11194;48.092;-1.382;2023-03-18T17:26:51;11.40;;;6.72;;
22060;SDS011;11194;48.092;-1.382;2023-03-18T17:29:26;9.73;;;8.25;;
22060;SDS011;11194;48.092;-1.382;2023-03-18T17:31:53;10.38;;;9.45;;
22060;SDS011;11194;48.092;-1.382;2023-03-18T17:34:20;5.22;;;4.80;;
22060;SDS011;11194;48.092;-1.382;2023-03-18T17:36:46;11.15;;;8.73;;
22060;SDS011;11194;48.092;-1.382;2023-03-18T17:39:13;5.50;;;4.97;;
22060;SDS011;11194;48.092;-1.382;2023-03-18T17:41:39;4.93;;;4.47;;
22060;SDS011;11194;48.092;-1.382;2023-03-18T17:44:21;5.90;;;5.40;;
22060;SDS011;11194;48.092;-1.382;2023-03-18T17:46:48;6.32;;;5.75;;
22060;SDS011;11194;48.092;-1.382;2023-03-18T17:49:14;7.20;;;4.93;;
22060;SDS011;11194;48.092;-1.382;2023-03-18T17:51:40;6.45;;;5.80;;
22060;SDS011;11194;48.092;-1.382;2023-03-18T17:54:08;5.88;;;5.30;;
22060;SDS011;11194;48.092;-1.382;2023-03-18T17:56:35;4.50;;;4.10;;
22060;SDS011;11194;48.092;-1.382;2023-03-18T17:59:04;4.40;;;4.10;;
22060;SDS011;11194;48.092;-1.382;2023-03-18T18:01:30;4.40;;;4.10;;
22060;SDS011;11194;48.092;-1.382;2023-03-18T18:03:56;3.63;;;3.33;;
22060;SDS011;11194;48.092;-1.382;2023-03-18T18:06:24;3.05;;;2.85;;
22060;SDS011;11194;48.092;-1.382;2023-03-18T18:08:53;4.18;;;3.88;;
22060;SDS011;11194;48.092;-1.382;2023-03-18T18:11:21;5.47;;;4.90;;
22060;SDS011;11194;48.092;-1.382;2023-03-18T18:13:48;4.85;;;4.32;;
22060;SDS011;11194;48.092;-1.382;2023-03-18T18:16:15;5.82;;;5.25;;
22060;SDS011;11194;48.092;-1.382;2023-03-18T18:18:41;8.50;;;6.07;;
22060;SDS011;11194;48.092;-1.382;2023-03-18T18:21:11;15.63;;;9.25;;
22060;SDS011;11194;48.092;-1.382;2023-03-18T18:23:41;13.63;;;10.05;;
22060;SDS011;11194;48.092;-1.382;2023-03-18T18:26:10;19.95;;;12.82;;
22060;SDS011;11194;48.092;-1.382;2023-03-18T18:28:37;13.07;;;9.48;;
22060;SDS011;11194;48.092;-1.382;2023-03-18T18:31:05;11.05;;;9.10;;
22060;SDS011;11194;48.092;-1.382;2023-03-18T18:33:33;10.02;;;7.95;;
22060;SDS011;11194;48.092;-1.382;2023-03-18T18:35:59;10.25;;;7.88;;
22060;SDS011;11194;48.092;-1.382;2023-03-18T18:38:26;13.63;;;8.98;;
22060;SDS011;11194;48.092;-1.382;2023-03-18T18:40:53;9.32;;;7.43;;
22060;SDS011;11194;48.092;-1.382;2023-03-18T18:43:19;7.28;;;6.57;;
22060;SDS011;11194;48.092;-1.382;2023-03-18T18:45:46;10.65;;;6.55;;
22060;SDS011;11194;48.092;-1.382;2023-03-18T18:48:15;5.32;;;4.03;;
22060;SDS011;11194;48.092;-1.382;2023-03-18T18:50:42;9.18;;;6.40;;
22060;SDS011;11194;48.092;-1.382;2023-03-18T18:53:13;9.75;;;7.10;;
22060;SDS011;11194;48.092;-1.382;2023-03-18T18:55:39;5.57;;;5.05;;
22060;SDS011;11194;48.092;-1.382;2023-03-18T18:58:08;7.00;;;6.15;;
22060;SDS011;11194;48.092;-1.382;2023-03-18T19:00:38;6.03;;;4.97;;
22060;SDS011;11194;48.092;-1.382;2023-03-18T19:03:05;6.70;;;5.70;;
22060;SDS011;11194;48.092;-1.382;2023-03-18T19:05:34;7.53;;;6.82;;
22060;SDS011;11194;48.092;-1.382;2023-03-18T19:08:01;6.13;;;5.30;;
22060;SDS011;11194;48.092;-1.382;2023-03-18T19:10:28;5.82;;;4.00;;
22060;SDS011;11194;48.092;-1.382;2023-03-18T19:12:54;7.00;;;4.60;;
22060;SDS011;11194;48.092;-1.382;2023-03-18T19:15:20;10.70;;;8.25;;
22060;SDS011;11194;48.092;-1.382;2023-03-18T19:17:47;13.50;;;6.80;;
22060;SDS011;11194;48.092;-1.382;2023-03-18T19:20:24;12.43;;;7.50;;
22060;SDS011;11194;48.092;-1.382;2023-03-18T19:22:51;6.72;;;5.38;;
22060;SDS011;11194;48.092;-1.382;2023-03-18T19:25:17;13.77;;;10.25;;
22060;SDS011;11194;48.092;-1.382;2023-03-18T19:27:43;9.38;;;7.30;;